createdAt,value
2022-11-23T00:04:29.210Z,10.60
2022-11-23T00:09:53.412Z,10.00
2022-11-23T00:15:18.530Z,9.53
2022-11-23T00:20:47.017Z,11.40
2022-11-23T00:26:15.959Z,12.10
2022-11-23T00:31:50.964Z,10.17
2022-11-23T00:37:17.367Z,8.70
2022-11-23T00:42:49.467Z,9.47
2022-11-23T00:48:27.343Z,10.33
2022-11-23T00:54:08.956Z,11.07
2022-11-23T00:59:49.146Z,11.77
2022-11-23T01:05:16.653Z,11.87
2022-11-23T01:10:52.507Z,11.23
2022-11-23T01:16:23.612Z,9.80
2022-11-23T01:21:52.542Z,13.03
2022-11-23T01:27:32.451Z,9.87
2022-11-23T01:33:16.204Z,10.43
2022-11-23T01:38:57.507Z,9.77
2022-11-23T01:44:48.439Z,12.53
2022-11-23T01:50:41.436Z,10.50
2022-11-23T01:56:10.941Z,10.03
2022-11-23T02:01:34.673Z,11.43
2022-11-23T02:07:00.062Z,8.70
2022-11-23T02:12:41.174Z,8.57
2022-11-23T02:18:23.218Z,10.63
2022-11-23T02:24:07.917Z,11.60
2022-11-23T02:29:35.471Z,12.47
2022-11-23T02:35:06.301Z,8.37
2022-11-23T02:40:42.426Z,11.73
2022-11-23T02:46:13.955Z,8.70
2022-11-23T02:51:43.387Z,8.73
2022-11-23T02:57:09.775Z,11.73
2022-11-23T03:02:42.027Z,11.13
2022-11-23T03:08:06.949Z,10.07
2022-11-23T03:13:32.227Z,15.37
2022-11-23T03:19:09.269Z,11.43
2022-11-23T03:24:46.275Z,11.37
2022-11-23T03:30:14.978Z,11.83
2022-11-23T03:35:43.377Z,9.13
2022-11-23T03:41:17.313Z,11.40
2022-11-23T03:46:55.143Z,9.80
2022-11-23T03:52:22.123Z,10.40
2022-11-23T03:57:48.770Z,10.53
2022-11-23T04:03:12.851Z,10.07
2022-11-23T04:14:23.744Z,9.47
2022-11-23T04:19:47.060Z,9.77
2022-11-23T04:25:19.559Z,8.20
2022-11-23T04:30:57.378Z,12.00
2022-11-23T04:36:26.207Z,11.00
2022-11-23T04:41:59.523Z,11.17
2022-11-23T04:47:32.422Z,9.67
2022-11-23T04:52:56.237Z,13.30
2022-11-23T04:58:48.379Z,12.93
2022-11-23T05:04:31.989Z,10.03
2022-11-23T05:10:01.979Z,10.07
2022-11-23T05:15:29.048Z,14.13
2022-11-23T05:20:56.186Z,10.20
2022-11-23T05:26:19.372Z,9.53
2022-11-23T05:31:47.226Z,10.27
2022-11-23T05:37:18.018Z,10.87
2022-11-23T05:42:45.695Z,11.60
2022-11-23T05:48:16.354Z,13.03
2022-11-23T05:53:40.351Z,9.00
2022-11-23T05:59:03.395Z,12.80
2022-11-23T06:04:30.326Z,11.80
2022-11-23T06:10:09.382Z,10.57
2022-11-23T06:15:34.466Z,12.17
2022-11-23T06:21:11.736Z,12.33
2022-11-23T06:26:41.287Z,10.70
2022-11-23T06:32:11.587Z,11.43
2022-11-23T06:37:39.351Z,11.90
2022-11-23T06:43:04.855Z,13.70
2022-11-23T06:48:43.020Z,16.20
2022-11-23T06:54:10.021Z,14.37
2022-11-23T06:59:44.773Z,11.60
2022-11-23T07:05:12.484Z,12.33
2022-11-23T07:10:49.034Z,11.60
2022-11-23T07:16:30.069Z,19.23
2022-11-23T07:22:02.966Z,14.97
2022-11-23T07:27:53.294Z,11.97
2022-11-23T07:33:29.735Z,11.30
2022-11-23T07:39:02.793Z,9.57
2022-11-23T07:44:29.842Z,13.47
2022-11-23T07:50:20.924Z,13.13
2022-11-23T07:55:47.920Z,14.60
2022-11-23T08:01:19.346Z,11.40
2022-11-23T08:06:50.522Z,11.23
2022-11-23T08:12:22.265Z,15.67
2022-11-23T08:17:58.354Z,11.70
2022-11-23T08:23:25.936Z,11.30
2022-11-23T08:28:51.065Z,11.10
2022-11-23T08:34:31.913Z,9.23
2022-11-23T08:39:56.256Z,10.67
2022-11-23T08:45:21.790Z,10.60
2022-11-23T08:50:55.542Z,9.23
2022-11-23T08:56:24.562Z,9.43
2022-11-23T09:01:52.882Z,10.37
2022-11-23T09:07:24.961Z,8.87
2022-11-23T09:12:48.605Z,7.57
2022-11-23T09:18:18.618Z,9.53
2022-11-23T09:23:44.245Z,9.17
2022-11-23T09:29:15.463Z,9.47
2022-11-23T09:34:41.309Z,7.10
2022-11-23T09:40:10.729Z,8.23
2022-11-23T09:45:45.298Z,10.63
2022-11-23T09:51:23.644Z,8.93
2022-11-23T09:56:54.878Z,6.60
2022-11-23T10:02:28.209Z,6.43
2022-11-23T10:08:07.138Z,8.00
2022-11-23T10:13:45.931Z,6.90
2022-11-23T10:19:25.139Z,5.70
2022-11-23T10:25:03.674Z,7.93
2022-11-23T10:30:40.320Z,7.53
2022-11-23T10:36:05.991Z,5.97
2022-11-23T10:41:33.151Z,7.40
2022-11-23T10:47:03.576Z,6.70
2022-11-23T10:52:31.271Z,5.10
2022-11-23T10:57:57.305Z,3.63
2022-11-23T11:03:27.218Z,8.90
2022-11-23T11:09:12.211Z,6.27
2022-11-23T11:14:54.537Z,5.57
2022-11-23T11:20:40.942Z,8.10
2022-11-23T11:26:30.731Z,9.10
2022-11-23T11:32:02.242Z,4.87
2022-11-23T11:37:40.588Z,8.53
2022-11-23T11:43:10.522Z,6.43
2022-11-23T11:48:41.636Z,6.40
2022-11-23T11:54:26.241Z,11.67
2022-11-23T12:00:01.000Z,7.13
2022-11-23T12:05:33.570Z,4.30
2022-11-23T12:11:10.441Z,7.37
2022-11-23T12:17:17.340Z,5.70
2022-11-23T12:23:08.743Z,7.83
2022-11-23T12:29:20.908Z,7.27
2022-11-23T12:35:12.410Z,7.60
2022-11-23T12:40:54.435Z,7.40
2022-11-23T12:46:28.612Z,4.33
2022-11-23T12:52:14.791Z,5.70
2022-11-23T12:57:55.249Z,7.57
2022-11-23T13:03:48.053Z,6.80
2022-11-23T13:09:50.274Z,7.20
2022-11-23T13:15:50.734Z,8.70
2022-11-23T13:21:31.243Z,6.67
2022-11-23T13:27:36.243Z,4.13
2022-11-23T13:33:44.251Z,4.47
2022-11-23T13:39:11.485Z,7.30
2022-11-23T13:44:44.422Z,6.27
2022-11-23T13:50:21.904Z,10.93
2022-11-23T13:56:03.059Z,6.47
2022-11-23T14:02:05.904Z,6.20
2022-11-23T14:07:47.138Z,7.67
2022-11-23T14:13:22.160Z,7.23
2022-11-23T14:19:16.945Z,5.40
2022-11-23T14:25:28.881Z,6.67
2022-11-23T14:31:11.431Z,9.83
2022-11-23T14:36:51.344Z,11.53
2022-11-23T14:42:22.359Z,7.87
2022-11-23T14:47:49.935Z,6.80
2022-11-23T14:53:15.308Z,6.63
2022-11-23T14:58:40.202Z,7.20
2022-11-23T15:04:13.531Z,5.30
2022-11-23T15:09:55.330Z,4.77
2022-11-23T15:15:38.680Z,6.67
2022-11-23T15:21:37.074Z,7.30
2022-11-23T15:27:12.593Z,10.17
2022-11-23T15:32:58.926Z,6.70
2022-11-23T15:44:04.471Z,8.20
2022-11-23T15:49:38.127Z,5.70
2022-11-23T15:55:18.124Z,8.63
2022-11-23T16:00:48.117Z,9.87
2022-11-23T16:06:26.282Z,5.60
2022-11-23T16:12:10.636Z,7.60
2022-11-23T16:17:39.003Z,6.90
2022-11-23T16:29:18.103Z,7.77
2022-11-23T16:34:48.702Z,5.30
2022-11-23T16:40:17.383Z,5.77
2022-11-23T16:45:58.449Z,8.43
2022-11-23T16:51:30.311Z,7.07
2022-11-23T16:57:06.447Z,6.60
2022-11-23T17:02:35.122Z,6.37
2022-11-23T17:08:09.626Z,7.87
2022-11-23T17:13:50.465Z,6.70
2022-11-23T17:19:27.630Z,8.13
2022-11-23T17:25:17.973Z,6.70
2022-11-23T17:30:41.943Z,6.67
2022-11-23T17:36:25.399Z,7.50
2022-11-23T17:41:49.046Z,6.50
2022-11-23T17:47:23.840Z,6.07
2022-11-23T17:52:50.419Z,6.30
2022-11-23T17:58:22.458Z,8.10
2022-11-23T18:03:53.383Z,7.50
2022-11-23T18:09:37.602Z,8.00
2022-11-23T18:15:12.642Z,7.63
2022-11-23T18:20:43.366Z,6.40
2022-11-23T18:26:24.927Z,7.93
2022-11-23T18:32:12.673Z,7.97
2022-11-23T18:37:39.906Z,6.27
2022-11-23T18:43:10.257Z,7.27
2022-11-23T18:48:43.275Z,5.23
2022-11-23T18:54:14.684Z,6.83
2022-11-23T18:59:57.846Z,7.07
2022-11-23T19:05:32.375Z,7.63
2022-11-23T19:10:57.410Z,8.93
2022-11-23T19:16:27.551Z,7.50
2022-11-23T19:22:22.167Z,5.23
2022-11-23T19:28:06.653Z,8.43
2022-11-23T19:34:00.725Z,8.97
2022-11-23T19:39:24.891Z,6.27
2022-11-23T19:45:15.909Z,8.70
2022-11-23T19:50:59.627Z,9.67
2022-11-23T19:56:30.766Z,8.10
2022-11-23T20:02:02.740Z,9.33
2022-11-23T20:07:35.702Z,7.60
2022-11-23T20:13:01.460Z,7.40
2022-11-23T20:18:31.640Z,11.00
2022-11-23T20:24:20.871Z,7.73
2022-11-23T20:29:56.360Z,12.77
2022-11-23T20:35:28.703Z,8.30
2022-11-23T20:41:00.854Z,7.33
2022-11-23T20:47:01.951Z,9.57
2022-11-23T20:52:32.183Z,11.03
2022-11-23T20:58:15.510Z,8.93
2022-11-23T21:03:46.162Z,9.47
2022-11-23T21:09:19.529Z,10.57
2022-11-23T21:15:06.394Z,12.03
2022-11-23T21:20:42.378Z,10.03
2022-11-23T21:26:13.032Z,9.30
2022-11-23T21:31:57.108Z,7.97
2022-11-23T21:37:39.066Z,8.70
2022-11-23T21:43:10.323Z,9.63
2022-11-23T21:48:58.431Z,8.37
2022-11-23T21:54:32.684Z,8.20
2022-11-23T21:59:57.821Z,10.50
2022-11-23T22:05:31.826Z,10.33
2022-11-23T22:11:13.903Z,10.87
2022-11-23T22:16:42.562Z,12.20
2022-11-23T22:22:31.754Z,9.40
2022-11-23T22:28:26.843Z,7.53
2022-11-23T22:34:02.440Z,9.17
2022-11-23T22:39:36.788Z,11.43
2022-11-23T22:45:06.795Z,11.33
2022-11-23T22:50:56.106Z,9.30
2022-11-23T22:56:23.422Z,12.10
2022-11-23T23:07:34.315Z,11.43
2022-11-23T23:13:01.375Z,13.63
2022-11-23T23:24:27.841Z,8.17
2022-11-23T23:35:36.517Z,9.13
2022-11-23T23:41:07.443Z,7.90
2022-11-23T23:46:35.611Z,9.20
2022-11-23T23:52:06.835Z,9.23
2022-11-23T23:57:32.405Z,9.03
